EET,Max TemperatureF,Mean TemperatureF,Min TemperatureF,Max Dew PointF,MeanDew PointF,Min DewpointF,Max Humidity, Mean Humidity, Min Humidity, Max Sea Level PressureIn, Mean Sea Level PressureIn, Min Sea Level PressureIn, Max VisibilityMiles, Mean VisibilityMiles, Min VisibilityMiles, Max Wind SpeedMPH, Mean Wind SpeedMPH, Max Gust SpeedMPH,PrecipitationIn, CloudCover, Events, WindDirDegrees
2012-10-1,72,58,44,50,38,29,66,44,22,30.36,30.34,30.30,6,6,6,7,4,,0.00,1,,119
2012-10-2,71,58,46,50,40,28,76,48,27,30.39,30.33,30.30,6,6,6,7,4,,0.00,1,,258
2012-10-3,71,58,45,52,40,32,72,46,17,30.27,30.24,30.18,6,6,6,21,6,,0.00,4,Rain,162
2012-10-4,73,62,52,50,41,36,63,41,17,30.21,30.09,30.01,12,6,6,14,7,,0.00,5,,11
2012-10-5,69,60,51,46,40,36,72,44,22,30.15,30.10,30.04,6,6,6,10,6,,0.00,2,,349
2012-10-6,69,57,45,48,41,34,76,53,28,30.24,30.21,30.18,7,6,6,13,5,,0.00,2,,353
2012-10-7,66,56,47,48,43,35,72,53,26,30.27,30.22,30.18,7,6,6,17,6,,0.00,4,,261
2012-10-8,72,62,52,43,38,34,67,38,18,30.18,30.08,29.98,7,6,4,21,13,26,0.01,6,Rain-Thunderstorm,148
2012-10-9,65,60,55,45,39,34,59,44,26,30.06,30.01,29.98,6,6,4,14,9,,0.00,6,,183
2012-10-10,64,55,46,50,41,34,82,59,25,30.15,30.11,30.04,7,6,6,24,8,,0.00,6,Rain-Thunderstorm,112
2012-10-11,67,56,46,50,43,36,82,60,32,30.18,30.10,30.01,7,6,5,21,7,21,0.04,6,Rain-Thunderstorm,125
2012-10-12,64,56,48,45,42,39,82,56,36,30.18,30.07,30.01,7,6,6,20,10,,0.00,5,,246
2012-10-13,62,50,39,43,39,30,87,60,31,30.24,30.22,30.18,7,6,6,9,4,,0.00,2,,54
2012-10-14,64,52,39,41,39,36,87,61,31,30.27,30.22,30.18,7,6,6,9,4,,0.00,3,,36
2012-10-15,65,52,38,41,38,34,87,58,25,30.30,30.26,30.24,7,6,6,8,4,,0.00,1,,85
2012-10-16,65,52,39,43,38,34,81,58,34,30.30,30.28,30.27,6,6,6,8,4,,0.00,1,,67
2012-10-17,64,52,39,45,39,32,81,59,36,30.27,30.24,30.21,7,6,6,8,4,,0.00,1,,84
2012-10-18,65,52,39,45,38,32,81,56,27,30.27,30.22,30.18,7,6,6,12,5,,0.00,2,,49
2012-10-19,63,52,40,42,36,32,76,47,25,30.27,30.24,30.21,7,6,6,9,6,,0.00,3,,275
2012-10-20,64,52,41,45,38,32,87,58,30,30.27,30.25,30.24,7,6,6,17,6,,0.01,5,Rain-Thunderstorm,353
2012-10-21,58,50,41,48,40,37,88,72,43,30.30,30.27,30.24,7,6,4,12,4,,0.08,5,Rain,93
2012-10-22,61,48,36,45,41,36,93,72,48,30.30,30.23,30.12,6,6,6,7,4,,0.00,4,,360
2012-10-23,61,54,48,50,45,37,100,71,42,30.15,30.10,30.09,6,6,4,20,7,,0.03,6,Rain,210
2012-10-24,58,53,48,46,45,43,93,77,54,30.18,30.16,30.12,7,6,6,17,7,,0.16,5,Rain-Thunderstorm,22
2012-10-25,55,50,46,45,43,39,87,73,53,30.15,30.05,29.98,7,6,6,12,6,,0.02,6,Rain-Thunderstorm,158
2012-10-26,59,52,44,43,39,36,76,57,45,30.01,29.96,29.92,6,6,6,14,7,,0.00,6,Thunderstorm,179
2012-10-27,56,48,41,43,40,37,93,74,49,30.12,30.06,30.01,7,6,6,12,6,,0.00,6,,28
2012-10-28,56,47,38,43,40,37,93,76,47,30.21,30.17,30.12,6,6,6,8,4,,0.00,3,,82
2012-10-29,58,46,35,43,38,32,93,71,34,30.21,30.18,30.15,7,6,6,9,4,,0.00,2,,64
2012-10-30,59,46,33,39,36,30,93,65,30,30.18,30.14,30.12,6,6,6,7,4,,0.00,1,,39
2012-10-31,59,48,36,45,38,32,100,68,34,30.24,30.20,30.15,7,6,6,9,4,,0.00,1,,50